Fair Isle, United Kingdom
Current Conditions -  °F | °C
As of 2:50 AM on Sunday 26 Oct 2014 (Local Time) from EGPB Reporting Station
Rain Showers Rain Showers  
Wind Chill: 52°   Ceiling: Unl
Heat Index: 52°   Visibility: 4mi
Dew Point: 46°   Wind: 30mph
Humidity: 82%   Direction: 210°SSW
Pressure: 29.23"   Gusts: 44mph
Location:  59.53°N, 1.63°W
Report Text: EGPB 260150Z AUTO 21026G38KT 6000 -SHRA FEW006/// 11/08 Q0990
Loading
Personal Weather Stations






























Interactive Weather Map
Tropical Storm Tracking
New forecast layout! Learn more

10-Day Weather Forecast

Advertisements
Track Severe Weather on mobile